Terminal Aerodrome Forecast
Issued by NWS

Home | Current Version | Previous Version | Graphics & Text | Print | Product List | Glossary Off
Versions: 1 2 3 4 5 6 7 8 9 10 11 12 13 14 15 16 17 18 19 20 21

000
FTUS43 KDDC 230520
TAFGCK
TAF
KGCK 230520Z 2306/2406 03007KT P6SM OVC080
     FM231300 03017G25KT P6SM BKN080
     FM240100 04009KT P6SM FEW200=

USA.gov is the U.S. government's official web portal to all federal, state and local government web resources and services.